TimeCDT,TemperatureF,Dew PointF,Humidity,Sea Level PressureIn,VisibilityMPH,Wind Direction,Wind SpeedMPH,Gust SpeedMPH,PrecipitationIn,Events,Conditions,WindDirDegrees,DateUTC
12:15 AM,49.1,35.6,60,29.66,10.0,West,6.9,-,N/A,,Overcast,280,2013-10-26 05:15:00
12:35 AM,48.2,35.1,60,29.66,10.0,West,4.6,-,N/A,,Mostly Cloudy,280,2013-10-26 05:35:00
12:55 AM,47.8,34.9,61,29.66,10.0,West,8.1,-,N/A,,Mostly Cloudy,280,2013-10-26 05:55:00
1:15 AM,47.3,35.1,62,29.66,10.0,West,3.5,-,N/A,,Overcast,280,2013-10-26 06:15:00
1:35 AM,47.3,34.7,62,29.66,10.0,West,4.6,-,N/A,,Overcast,280,2013-10-26 06:35:00
1:55 AM,47.1,34.2,61,29.65,10.0,West,8.1,-,N/A,,Overcast,280,2013-10-26 06:55:00
2:15 AM,46.8,34.0,61,29.66,10.0,WNW,5.8,-,N/A,,Overcast,300,2013-10-26 07:15:00
2:35 AM,46.4,32.9,59,29.66,10.0,NW,9.2,-,N/A,,Overcast,310,2013-10-26 07:35:00
2:55 AM,45.9,32.0,58,29.67,10.0,WNW,9.2,18.4,N/A,,Overcast,300,2013-10-26 07:55:00
3:15 AM,45.5,32.0,59,29.68,10.0,NNW,8.1,-,N/A,,Overcast,340,2013-10-26 08:15:00
3:35 AM,43.7,33.1,66,29.68,10.0,NW,10.4,-,N/A,,Overcast,320,2013-10-26 08:35:00
3:55 AM,43.5,32.2,64,29.69,10.0,WNW,9.2,18.4,N/A,,Overcast,300,2013-10-26 08:55:00
4:15 AM,42.6,31.6,65,29.69,10.0,NW,9.2,19.6,N/A,,Overcast,320,2013-10-26 09:15:00
4:35 AM,41.5,31.8,68,29.70,10.0,NW,6.9,17.3,N/A,,Overcast,320,2013-10-26 09:35:00
4:55 AM,41.0,32.0,70,29.71,10.0,NW,10.4,19.6,N/A,,Overcast,310,2013-10-26 09:55:00
5:15 AM,40.5,32.0,72,29.73,10.0,NW,10.4,16.1,N/A,,Overcast,310,2013-10-26 10:15:00
5:35 AM,40.1,32.0,73,29.74,10.0,NW,8.1,-,N/A,,Overcast,310,2013-10-26 10:35:00
5:55 AM,40.1,31.8,72,29.74,10.0,NW,11.5,-,N/A,,Overcast,320,2013-10-26 10:55:00
6:15 AM,39.7,31.1,71,29.75,10.0,NW,9.2,16.1,N/A,,Overcast,320,2013-10-26 11:15:00
6:35 AM,39.4,30.9,72,29.75,10.0,NW,10.4,18.4,N/A,,Overcast,310,2013-10-26 11:35:00
6:55 AM,39.2,29.7,69,29.77,10.0,NW,8.1,16.1,N/A,,Overcast,320,2013-10-26 11:55:00
7:15 AM,38.8,29.1,68,29.77,10.0,NW,10.4,17.3,N/A,,Overcast,310,2013-10-26 12:15:00
7:35 AM,38.3,30.0,72,29.78,10.0,NW,12.7,20.7,N/A,,Overcast,310,2013-10-26 12:35:00
7:55 AM,36.7,30.6,78,29.79,10.0,NW,8.1,-,N/A,,Overcast,310,2013-10-26 12:55:00
8:15 AM,35.8,30.9,82,29.80,10.0,NW,6.9,-,N/A,,Scattered Clouds,310,2013-10-26 13:15:00
8:35 AM,36.3,31.1,81,29.82,10.0,WNW,5.8,9.2,N/A,,Clear,300,2013-10-26 13:35:00
8:55 AM,36.9,30.9,79,29.82,10.0,WNW,8.1,-,N/A,,Scattered Clouds,300,2013-10-26 13:55:00
9:15 AM,37.0,31.5,80,29.83,10.0,WNW,10.4,16.1,N/A,,Mostly Cloudy,300,2013-10-26 14:15:00
9:35 AM,37.4,31.8,80,29.84,10.0,WNW,11.5,18.4,N/A,,Overcast,290,2013-10-26 14:35:00
9:55 AM,36.9,32.0,83,29.85,10.0,WNW,10.4,16.1,N/A,Rain,Rain,300,2013-10-26 14:55:00
10:15 AM,36.5,32.7,86,29.86,10.0,NW,6.9,18.4,N/A,Rain,Light Rain,310,2013-10-26 15:15:00
10:35 AM,37.6,32.9,83,29.86,10.0,WNW,10.4,16.1,N/A,,Overcast,300,2013-10-26 15:35:00
10:55 AM,38.1,32.0,79,29.87,10.0,NW,16.1,23.0,N/A,,Overcast,310,2013-10-26 15:55:00
11:15 AM,39.4,32.2,75,29.88,10.0,WNW,11.5,21.9,N/A,,Overcast,300,2013-10-26 16:15:00
11:35 AM,40.5,32.0,72,29.89,10.0,NW,16.1,27.6,N/A,,Overcast,320,2013-10-26 16:35:00
11:55 AM,37.2,32.0,81,29.92,7.0,NNW,13.8,24.2,N/A,Rain,Rain,340,2013-10-26 16:55:00
12:15 PM,36.1,32.9,88,29.92,7.0,NNW,12.7,23.0,N/A,Rain,Light Rain,330,2013-10-26 17:15:00
12:35 PM,35.4,34.2,95,29.93,5.0,North,8.1,-,0.01,Snow,Light Snow,350,2013-10-26 17:35:00
12:55 PM,36.3,33.4,89,29.92,7.0,North,10.4,-,0.02,,Drizzle,360,2013-10-26 17:55:00
1:15 PM,35.8,33.3,91,29.93,5.0,NW,6.9,18.4,N/A,Rain,Light Rain,310,2013-10-26 18:15:00
1:35 PM,40.1,34.9,82,29.93,10.0,NNW,12.7,19.6,N/A,,Scattered Clouds,330,2013-10-26 18:35:00
1:55 PM,39.4,31.8,74,29.93,10.0,NNW,12.7,19.6,N/A,,Drizzle,330,2013-10-26 18:55:00
2:15 PM,41.0,32.5,72,29.94,10.0,NNW,9.2,-,N/A,,Mostly Cloudy,330,2013-10-26 19:15:00
2:35 PM,39.9,31.5,72,29.95,10.0,North,12.7,18.4,N/A,,Overcast,360,2013-10-26 19:35:00
2:55 PM,37.0,32.2,83,29.96,10.0,NNW,8.1,17.3,N/A,Rain,Light Rain,340,2013-10-26 19:55:00
3:15 PM,39.4,32.4,76,29.96,10.0,NNW,6.9,-,N/A,,Overcast,330,2013-10-26 20:15:00
3:35 PM,39.2,31.5,74,29.96,10.0,NW,3.5,-,N/A,,Overcast,310,2013-10-26 20:35:00
3:55 PM,39.4,29.1,67,29.97,10.0,NNW,12.7,19.6,N/A,,Overcast,340,2013-10-26 20:55:00
4:15 PM,38.8,27.7,64,29.97,10.0,NNW,9.2,-,N/A,,Overcast,330,2013-10-26 21:15:00
4:35 PM,39.2,27.5,63,29.98,10.0,NNW,8.1,-,N/A,,Overcast,330,2013-10-26 21:35:00
4:55 PM,39.2,27.5,63,29.98,10.0,NNW,6.9,-,N/A,,Overcast,340,2013-10-26 21:55:00
5:15 PM,39.0,27.3,63,29.98,10.0,NNW,5.8,-,N/A,,Overcast,340,2013-10-26 22:15:00
5:35 PM,39.0,27.3,63,29.98,10.0,NW,5.8,-,N/A,,Overcast,320,2013-10-26 22:35:00
5:55 PM,38.8,26.6,61,29.98,10.0,NNW,5.8,-,N/A,,Overcast,340,2013-10-26 22:55:00
6:15 PM,38.5,26.8,63,29.99,10.0,NW,8.1,-,N/A,,Overcast,320,2013-10-26 23:15:00
6:35 PM,38.3,27.3,65,30.00,10.0,NW,5.8,-,N/A,,Overcast,320,2013-10-26 23:35:00
6:55 PM,37.8,28.0,68,30.00,10.0,North,4.6,-,N/A,,Overcast,10,2013-10-26 23:55:00
7:15 PM,37.0,28.4,71,30.00,10.0,Calm,Calm,-,N/A,,Overcast,0,2013-10-27 00:15:00
7:35 PM,36.0,28.9,76,30.01,10.0,Calm,Calm,-,N/A,,Overcast,0,2013-10-27 00:35:00
7:55 PM,36.5,28.8,74,30.01,10.0,Calm,Calm,-,N/A,,Overcast,0,2013-10-27 00:55:00
8:15 PM,36.5,29.1,75,30.00,10.0,Calm,Calm,-,N/A,,Overcast,0,2013-10-27 01:15:00
8:35 PM,34.7,29.7,82,30.00,10.0,Calm,Calm,-,N/A,,Overcast,0,2013-10-27 01:35:00
8:55 PM,34.5,29.3,81,30.00,10.0,Calm,Calm,-,N/A,,Overcast,0,2013-10-27 01:55:00
9:15 PM,34.0,30.0,85,30.00,10.0,Calm,Calm,-,N/A,,Overcast,0,2013-10-27 02:15:00
9:35 PM,34.0,30.9,89,30.00,10.0,Calm,Calm,-,N/A,,Overcast,0,2013-10-27 02:35:00
9:55 PM,34.3,31.3,89,30.00,10.0,Calm,Calm,-,N/A,,Overcast,0,2013-10-27 02:55:00
10:15 PM,34.9,30.9,85,29.99,10.0,Calm,Calm,-,N/A,,Overcast,0,2013-10-27 03:15:00
10:35 PM,35.4,29.1,78,30.00,10.0,Calm,Calm,-,N/A,,Overcast,0,2013-10-27 03:35:00
10:55 PM,35.1,28.9,78,29.99,10.0,Calm,Calm,-,N/A,,Overcast,0,2013-10-27 03:55:00
11:15 PM,35.4,29.5,79,29.99,10.0,Calm,Calm,-,N/A,,Overcast,0,2013-10-27 04:15:00
11:35 PM,35.2,29.8,81,29.98,10.0,WSW,3.5,-,N/A,,Overcast,240,2013-10-27 04:35:00
11:55 PM,35.2,30.2,82,29.97,10.0,WSW,3.5,-,N/A,,Overcast,240,2013-10-27 04:55:00